createdAt,value
2019-04-04T06:00:30.277Z,75.39
2019-04-04T06:01:30.237Z,75.12
2019-04-04T06:02:30.257Z,75.08
2019-04-04T06:03:30.287Z,75.43
2019-04-04T06:04:30.211Z,75.43
2019-04-04T06:05:31.779Z,75.29
2019-04-04T06:06:31.166Z,75.29
2019-04-04T06:07:30.167Z,75.39
2019-04-04T06:08:30.179Z,74.91
2019-04-04T06:09:30.147Z,75.39
2019-04-04T06:10:30.170Z,75.39
2019-04-04T06:11:30.207Z,75.39
2019-04-04T06:12:30.120Z,76.11
2019-04-04T06:13:30.114Z,76.07
2019-04-04T06:14:30.676Z,76.07
2019-04-04T06:15:32.189Z,76.07
2019-04-04T06:16:30.111Z,75.87
2019-04-04T06:17:30.059Z,76.39
2019-04-04T06:18:30.053Z,76.90
2019-04-04T06:19:30.044Z,77.21
2019-04-04T06:20:30.043Z,76.79
2019-04-04T06:21:30.050Z,77.17
2019-04-04T06:22:30.036Z,77.17
2019-04-04T06:23:30.005Z,77.11
2019-04-04T06:24:30.007Z,77.11
2019-04-04T06:25:34.343Z,76.97
2019-04-04T06:26:31.001Z,76.90
2019-04-04T06:27:30.087Z,76.90
2019-04-04T06:28:29.942Z,77.00
2019-04-04T06:29:29.937Z,77.00
2019-04-04T06:30:42.215Z,77.17
2019-04-04T06:31:31.048Z,78.10
2019-04-04T06:32:31.024Z,77.38
2019-04-04T06:33:29.909Z,77.42
2019-04-04T06:34:29.881Z,76.86
2019-04-04T06:35:29.864Z,77.69
2019-04-04T06:36:29.851Z,77.38
2019-04-04T06:37:29.892Z,77.28
2019-04-04T06:38:29.834Z,77.58
2019-04-04T06:39:29.835Z,77.28
2019-04-04T06:40:30.219Z,77.48
2019-04-04T06:41:30.710Z,76.86
2019-04-04T06:42:29.845Z,77.17
2019-04-04T06:43:29.809Z,77.07
2019-04-04T06:44:29.800Z,77.17
2019-04-04T06:45:29.890Z,77.17
2019-04-04T06:46:31.306Z,77.14
2019-04-04T06:47:32.253Z,76.73
2019-04-04T06:48:33.500Z,76.42
2019-04-04T06:49:29.751Z,77.14
2019-04-04T06:50:29.729Z,77.24
2019-04-04T06:51:29.694Z,76.93
2019-04-04T06:52:29.681Z,77.03
2019-04-04T06:53:29.670Z,76.93
2019-04-04T06:54:29.721Z,76.62
2019-04-04T06:55:29.650Z,76.42
2019-04-04T06:56:31.856Z,77.14
2019-04-04T06:57:29.634Z,77.45
2019-04-04T06:58:29.656Z,76.97
2019-04-04T06:59:29.608Z,76.83
2019-04-04T07:00:29.606Z,76.73
2019-04-04T07:01:29.604Z,75.80
2019-04-04T07:02:29.584Z,75.80
2019-04-04T07:03:29.601Z,75.80
2019-04-04T07:04:31.904Z,75.80
2019-04-04T07:05:29.568Z,76.01
2019-04-04T07:06:29.530Z,75.90
2019-04-04T07:07:29.520Z,76.01
2019-04-04T07:08:29.510Z,76.62
2019-04-04T07:09:29.536Z,76.52
2019-04-04T07:10:29.526Z,76.90
2019-04-04T07:11:29.502Z,76.48
2019-04-04T07:12:29.531Z,76.18
2019-04-04T07:13:41.413Z,76.28
2019-04-04T07:14:45.183Z,76.07
2019-04-04T07:15:30.481Z,76.48
2019-04-04T07:16:29.447Z,77.10
2019-04-04T07:17:29.418Z,76.38
2019-04-04T07:18:29.405Z,76.59
2019-04-04T07:19:29.448Z,77.00
2019-04-04T07:20:29.392Z,76.90
2019-04-04T07:21:29.393Z,77.41
2019-04-04T07:22:29.364Z,77.00
2019-04-04T07:23:29.367Z,77.51
2019-04-04T07:24:31.125Z,77.41
2019-04-04T07:25:29.324Z,76.90
2019-04-04T07:26:29.318Z,76.35
2019-04-04T07:27:29.323Z,76.79
2019-04-04T07:28:30.790Z,77.20
2019-04-04T07:29:29.296Z,77.48
2019-04-04T07:30:29.368Z,76.38
2019-04-04T07:31:33.190Z,77.06
2019-04-04T07:32:29.283Z,76.28
2019-04-04T07:33:29.245Z,76.25
2019-04-04T07:34:29.233Z,76.65
2019-04-04T07:35:29.249Z,76.28
2019-04-04T07:36:29.211Z,77.06
2019-04-04T07:37:29.242Z,75.73
2019-04-04T07:38:29.465Z,75.93
2019-04-04T07:39:32.010Z,76.55
2019-04-04T07:40:29.170Z,77.17
2019-04-04T07:41:29.221Z,77.37
2019-04-04T07:42:29.178Z,77.27
2019-04-04T07:43:29.130Z,77.27
2019-04-04T07:44:29.123Z,77.37
2019-04-04T07:45:29.155Z,77.17
2019-04-04T07:46:29.104Z,77.27
2019-04-04T07:47:29.097Z,77.06
2019-04-04T07:48:29.094Z,76.76
2019-04-04T07:49:29.090Z,76.97
2019-04-04T07:50:29.050Z,77.48
2019-04-04T07:51:30.135Z,77.23
2019-04-04T07:52:29.051Z,77.48
2019-04-04T07:53:29.024Z,77.58
2019-04-04T07:54:31.776Z,77.27
2019-04-04T07:55:29.039Z,76.76
2019-04-04T07:56:29.011Z,77.06
2019-04-04T07:57:30.213Z,76.62
2019-04-04T07:58:28.980Z,77.17
2019-04-04T07:59:31.048Z,76.82
2019-04-04T08:00:28.972Z,76.82
2019-04-04T08:01:28.939Z,76.21
2019-04-04T08:02:28.933Z,76.65
2019-04-04T08:03:28.918Z,76.31
2019-04-04T08:04:28.909Z,75.80
2019-04-04T08:05:28.938Z,76.42
2019-04-04T08:06:28.891Z,76.42
2019-04-04T08:07:28.904Z,76.31
2019-04-04T08:08:28.902Z,75.90
2019-04-04T08:09:28.858Z,76.42
2019-04-04T08:10:28.872Z,76.21
2019-04-04T08:11:28.848Z,76.31
2019-04-04T08:12:28.849Z,76.42
2019-04-04T08:13:28.814Z,76.42
2019-04-04T08:14:28.795Z,76.28
2019-04-04T08:15:28.811Z,76.17
2019-04-04T08:16:28.776Z,76.28
2019-04-04T08:17:28.781Z,75.90
2019-04-04T08:18:28.759Z,74.94
2019-04-04T08:19:28.773Z,74.77
2019-04-04T08:20:28.739Z,74.74
2019-04-04T08:21:28.730Z,75.15
2019-04-04T08:22:28.734Z,75.66
2019-04-04T08:23:28.715Z,75.56
2019-04-04T08:24:28.714Z,76.21
2019-04-04T08:25:28.698Z,76.28
2019-04-04T08:26:28.694Z,76.28
2019-04-04T08:27:28.659Z,76.58
2019-04-04T08:28:28.648Z,76.89
2019-04-04T08:29:28.648Z,77.20
2019-04-04T08:30:28.657Z,77.30
2019-04-04T08:31:28.664Z,77.40
2019-04-04T08:32:28.609Z,76.89
2019-04-04T08:33:28.672Z,76.68
2019-04-04T08:34:28.586Z,76.79
2019-04-04T08:35:28.588Z,77.10
2019-04-04T08:36:28.602Z,77.71
2019-04-04T08:37:28.564Z,77.06
2019-04-04T08:38:28.541Z,76.89
2019-04-04T08:39:28.542Z,77.81
2019-04-04T08:40:28.527Z,77.20
2019-04-04T08:41:28.573Z,77.20
2019-04-04T08:42:28.524Z,77.40
2019-04-04T08:43:28.489Z,77.00
2019-04-04T08:44:28.497Z,77.20
2019-04-04T08:45:28.499Z,77.20
2019-04-04T08:46:28.511Z,77.20
2019-04-04T08:47:28.477Z,77.51
2019-04-04T08:48:28.436Z,77.51
2019-04-04T08:49:28.425Z,77.10
2019-04-04T08:50:28.417Z,77.20
2019-04-04T08:51:28.618Z,77.30
2019-04-04T08:52:28.434Z,77.40
2019-04-04T08:53:39.299Z,77.10
2019-04-04T08:54:29.377Z,76.79
2019-04-04T08:55:28.370Z,77.40
2019-04-04T08:56:28.391Z,77.75
2019-04-04T08:57:28.347Z,77.10
2019-04-04T08:58:28.362Z,76.58
2019-04-04T08:59:28.329Z,77.20
2019-04-04T09:00:28.308Z,76.58
2019-04-04T09:01:28.339Z,76.58
2019-04-04T09:02:28.314Z,75.66
2019-04-04T09:03:28.290Z,75.87
2019-04-04T09:04:28.292Z,76.38
2019-04-04T09:05:28.266Z,76.28
2019-04-04T09:06:28.257Z,76.38
2019-04-04T09:07:28.231Z,75.97
2019-04-04T09:08:28.225Z,75.87
2019-04-04T09:09:28.293Z,74.22
2019-04-04T09:10:28.214Z,73.61
2019-04-04T09:11:28.191Z,73.50
2019-04-04T09:12:28.183Z,73.91
2019-04-04T09:13:28.173Z,74.19
2019-04-04T09:14:28.196Z,74.53
2019-04-04T09:15:28.163Z,74.29
2019-04-04T09:16:28.156Z,72.85
2019-04-04T09:17:28.127Z,72.24
2019-04-04T09:18:28.161Z,72.34
2019-04-04T09:19:28.145Z,71.62
2019-04-04T09:20:28.090Z,72.14
2019-04-04T09:21:28.109Z,71.31
2019-04-04T09:22:28.081Z,70.08
2019-04-04T09:23:28.062Z,70.50
2019-04-04T09:24:28.070Z,69.88
2019-04-04T09:25:28.066Z,69.60
2019-04-04T09:26:28.053Z,68.99
2019-04-04T09:27:28.027Z,69.50
2019-04-04T09:28:28.028Z,69.70
2019-04-04T09:29:27.999Z,68.57
2019-04-04T09:30:28.025Z,67.86
2019-04-04T09:31:28.060Z,68.78
2019-04-04T09:32:27.972Z,69.40
2019-04-04T09:33:27.968Z,69.26
2019-04-04T09:34:27.947Z,68.78
2019-04-04T09:35:27.988Z,68.68
2019-04-04T09:36:27.930Z,68.57
2019-04-04T09:37:27.918Z,69.09
2019-04-04T09:38:29.225Z,69.84
2019-04-04T09:39:27.891Z,69.91
2019-04-04T09:40:28.025Z,70.32
2019-04-04T09:41:27.875Z,70.73
2019-04-04T09:42:27.952Z,69.50
2019-04-04T09:43:27.859Z,70.01
2019-04-04T09:44:27.841Z,69.70
2019-04-04T09:45:27.824Z,69.19
2019-04-04T09:46:27.828Z,68.91
2019-04-04T09:47:27.835Z,69.23
2019-04-04T09:48:27.795Z,68.81
2019-04-04T09:49:27.787Z,69.02
2019-04-04T09:50:27.781Z,68.99
2019-04-04T09:51:27.760Z,69.60
2019-04-04T09:52:27.811Z,70.63
2019-04-04T09:53:27.741Z,69.19
2019-04-04T09:54:27.731Z,69.70
2019-04-04T09:55:27.752Z,68.96
2019-04-04T09:56:27.735Z,68.85
2019-04-04T09:57:27.704Z,68.62
2019-04-04T09:58:27.711Z,67.62
2019-04-04T09:59:27.673Z,67.11
2019-04-04T10:00:27.669Z,68.13
2019-04-04T10:01:27.667Z,68.44
2019-04-04T10:02:27.658Z,68.62
2019-04-04T10:03:27.674Z,67.21
2019-04-04T10:04:27.629Z,66.90
2019-04-04T10:05:27.614Z,67.00
2019-04-04T10:06:27.621Z,66.70
2019-04-04T10:07:27.595Z,67.00
2019-04-04T10:08:27.638Z,67.62
2019-04-04T10:09:27.569Z,67.83
2019-04-04T10:10:27.558Z,66.90
2019-04-04T10:11:27.557Z,66.70
2019-04-04T10:12:29.577Z,66.80
2019-04-04T10:13:27.549Z,65.36
2019-04-04T10:14:27.516Z,64.67
2019-04-04T10:15:27.504Z,64.88
2019-04-04T10:16:27.495Z,66.93
2019-04-04T10:17:27.532Z,67.11
2019-04-04T10:18:27.475Z,66.80
2019-04-04T10:19:27.489Z,65.88
2019-04-04T10:20:27.450Z,67.21
2019-04-04T10:21:27.449Z,66.28
2019-04-04T10:22:27.434Z,66.67
2019-04-04T10:23:27.453Z,64.75
2019-04-04T10:24:27.457Z,64.72
2019-04-04T10:25:27.422Z,64.20
2019-04-04T10:26:27.393Z,64.51
2019-04-04T10:27:27.386Z,65.95
2019-04-04T10:28:27.368Z,65.54
2019-04-04T10:29:27.421Z,65.23
2019-04-04T10:30:27.347Z,65.54
2019-04-04T10:31:27.334Z,64.61
2019-04-04T10:32:27.356Z,64.31
2019-04-04T10:33:27.313Z,64.51
2019-04-04T10:34:28.445Z,65.03
2019-04-04T10:35:27.292Z,65.54
2019-04-04T10:36:27.295Z,64.72
2019-04-04T10:37:27.276Z,64.34
2019-04-04T10:38:27.256Z,64.75
2019-04-04T10:39:29.410Z,64.64
2019-04-04T10:40:27.246Z,64.75
2019-04-04T10:41:27.230Z,65.16
2019-04-04T10:42:27.238Z,66.80
2019-04-04T10:43:27.203Z,66.83
2019-04-04T10:44:27.238Z,65.60
2019-04-04T10:45:27.187Z,66.22
2019-04-04T10:46:27.182Z,66.22
2019-04-04T10:47:27.162Z,66.42
2019-04-04T10:48:27.202Z,66.28
2019-04-04T10:49:27.147Z,64.95
2019-04-04T10:50:27.129Z,65.57
2019-04-04T10:51:27.128Z,66.70
2019-04-04T10:52:27.142Z,65.57
2019-04-04T10:53:27.116Z,65.57
2019-04-04T10:54:27.089Z,66.60
2019-04-04T10:55:27.084Z,65.36
2019-04-04T10:56:27.069Z,65.06
2019-04-04T10:57:27.086Z,65.26
2019-04-04T10:58:27.049Z,65.67
2019-04-04T10:59:27.039Z,65.39
2019-04-04T11:00:27.023Z,64.95
2019-04-04T11:01:27.044Z,64.95
2019-04-04T11:02:27.009Z,64.85
2019-04-04T11:03:26.988Z,65.39
2019-04-04T11:04:26.994Z,66.93
2019-04-04T11:05:26.995Z,66.73
2019-04-04T11:06:27.000Z,67.14
2019-04-04T11:07:26.947Z,67.14
2019-04-04T11:08:26.936Z,66.63
2019-04-04T11:09:26.955Z,66.83
2019-04-04T11:10:26.921Z,67.14
2019-04-04T11:11:26.963Z,66.31
2019-04-04T11:12:26.947Z,67.86
2019-04-04T11:13:33.273Z,67.65
2019-04-04T11:14:27.893Z,68.24
2019-04-04T11:15:26.868Z,69.06
2019-04-04T11:16:30.304Z,67.93
2019-04-04T11:17:26.873Z,67.52
2019-04-04T11:18:26.870Z,67.18
2019-04-04T11:19:31.303Z,67.21
2019-04-04T11:20:26.807Z,67.21
2019-04-04T11:21:26.805Z,66.90
2019-04-04T11:22:26.806Z,67.08
2019-04-04T11:23:26.823Z,67.18
2019-04-04T11:24:26.771Z,66.97
2019-04-04T11:25:26.755Z,66.90
2019-04-04T11:26:26.749Z,66.25
2019-04-04T11:27:26.756Z,67.11
2019-04-04T11:28:26.748Z,67.59
2019-04-04T11:29:26.720Z,67.49
2019-04-04T11:30:26.699Z,69.02
2019-04-04T11:31:26.699Z,69.13
2019-04-04T11:32:26.725Z,68.00
2019-04-04T11:33:26.694Z,68.41
2019-04-04T11:34:26.686Z,67.59
2019-04-04T11:35:26.652Z,68.13
2019-04-04T11:36:26.647Z,68.00
2019-04-04T11:37:26.647Z,66.28
2019-04-04T11:38:26.643Z,67.08
2019-04-04T11:39:26.633Z,68.10
2019-04-04T11:40:26.623Z,67.52
2019-04-04T11:41:26.585Z,68.30
2019-04-04T11:42:26.578Z,67.52
2019-04-04T11:43:26.587Z,67.49
2019-04-04T11:44:26.559Z,69.02
2019-04-04T11:45:26.575Z,69.54
2019-04-04T11:46:26.540Z,68.62
2019-04-04T11:47:26.587Z,67.76
2019-04-04T11:48:26.518Z,67.79
2019-04-04T11:49:26.533Z,68.62
2019-04-04T11:50:26.508Z,67.28
2019-04-04T11:51:26.495Z,66.87
2019-04-04T11:52:26.484Z,68.00
2019-04-04T11:53:26.495Z,67.69
2019-04-04T11:54:26.517Z,68.21
2019-04-04T11:55:26.499Z,68.92
2019-04-04T11:56:26.479Z,69.10
2019-04-04T11:57:26.550Z,69.61
2019-04-04T11:58:26.444Z,70.46
2019-04-04T11:59:26.470Z,69.84
2019-04-04T12:00:26.392Z,68.68
2019-04-04T12:01:26.377Z,68.79
2019-04-04T12:02:26.368Z,69.71
2019-04-04T12:03:26.403Z,69.10
2019-04-04T12:04:26.379Z,68.59
2019-04-04T12:05:26.344Z,67.97
2019-04-04T12:06:26.333Z,67.49
2019-04-04T12:07:26.312Z,68.72
2019-04-04T12:08:26.303Z,68.21
2019-04-04T12:09:26.309Z,68.51
2019-04-04T12:10:26.305Z,68.41
2019-04-04T12:11:26.258Z,69.13
2019-04-04T12:12:26.247Z,69.88
2019-04-04T12:13:26.266Z,70.29
2019-04-04T12:14:26.250Z,71.31
2019-04-04T12:15:26.251Z,71.72
2019-04-04T12:16:26.214Z,71.80
2019-04-04T12:17:26.198Z,72.10
2019-04-04T12:18:26.212Z,71.59
2019-04-04T12:19:26.176Z,71.83
2019-04-04T12:20:26.166Z,72.65
2019-04-04T12:21:26.167Z,71.48
2019-04-04T12:22:26.150Z,70.60
2019-04-04T12:23:26.154Z,70.36
2019-04-04T12:24:26.123Z,70.87
2019-04-04T12:25:26.110Z,70.97
2019-04-04T12:26:26.101Z,71.31
2019-04-04T12:27:26.112Z,71.42
2019-04-04T12:28:26.130Z,70.18
2019-04-04T12:29:26.073Z,71.11
2019-04-04T12:30:26.089Z,72.24
2019-04-04T12:31:26.051Z,73.16
2019-04-04T12:32:26.048Z,72.24
2019-04-04T12:33:26.060Z,71.83
2019-04-04T12:34:26.013Z,72.65
2019-04-04T12:35:26.013Z,71.72
2019-04-04T12:36:25.995Z,72.75
2019-04-04T12:37:25.989Z,72.03
2019-04-04T12:38:26.000Z,71.83
2019-04-04T12:39:26.029Z,71.83
2019-04-04T12:40:25.964Z,71.42
2019-04-04T12:41:28.115Z,71.93
2019-04-04T12:42:25.930Z,71.52
2019-04-04T12:43:25.949Z,71.83
2019-04-04T12:44:25.933Z,71.83
2019-04-04T12:45:25.902Z,72.24
2019-04-04T12:46:25.882Z,71.62
2019-04-04T12:47:25.889Z,72.14
2019-04-04T12:48:25.889Z,72.75
2019-04-04T12:49:25.853Z,72.14
2019-04-04T12:50:25.851Z,70.08
2019-04-04T12:51:25.842Z,70.08
2019-04-04T12:52:25.853Z,69.57
2019-04-04T12:53:25.847Z,70.70
2019-04-04T12:54:25.834Z,69.98
2019-04-04T12:55:25.788Z,68.82
2019-04-04T12:56:25.813Z,69.06
2019-04-04T12:57:25.770Z,69.67
2019-04-04T12:58:25.781Z,70.36
2019-04-04T12:59:25.764Z,71.62
2019-04-04T13:00:25.751Z,70.60
2019-04-04T13:01:25.736Z,71.08
2019-04-04T13:02:25.724Z,71.21
2019-04-04T13:03:25.761Z,71.31
2019-04-04T13:04:31.636Z,71.90
2019-04-04T13:05:26.687Z,70.90
2019-04-04T13:06:25.675Z,71.31
2019-04-04T13:07:25.660Z,70.94
2019-04-04T13:08:25.679Z,71.04
2019-04-04T13:09:25.655Z,71.14
2019-04-04T13:10:33.028Z,71.14
2019-04-04T13:11:26.633Z,72.27
2019-04-04T13:12:25.644Z,72.17
2019-04-04T13:13:25.612Z,71.42
2019-04-04T13:14:25.621Z,71.25
2019-04-04T13:15:25.573Z,70.84
2019-04-04T13:16:25.564Z,71.35
2019-04-04T13:17:25.563Z,71.35
2019-04-04T13:18:25.548Z,71.59
2019-04-04T13:19:25.569Z,71.28
2019-04-04T13:20:25.527Z,72.31
2019-04-04T13:21:25.581Z,72.00
2019-04-04T13:22:25.508Z,72.72
2019-04-04T13:23:25.497Z,73.02
2019-04-04T13:24:25.486Z,74.12
2019-04-04T13:25:25.506Z,73.54
2019-04-04T13:26:25.463Z,73.81
2019-04-04T13:27:25.447Z,74.05
2019-04-04T13:28:25.433Z,72.89
2019-04-04T13:29:25.484Z,74.32
2019-04-04T13:30:25.449Z,74.12
2019-04-04T13:31:25.405Z,74.22
2019-04-04T13:32:25.430Z,73.50
2019-04-04T13:33:25.380Z,74.02
2019-04-04T13:34:25.385Z,74.02
2019-04-04T13:35:25.360Z,72.68
2019-04-04T13:36:25.373Z,72.38
2019-04-04T13:37:25.347Z,73.40
2019-04-04T13:38:25.335Z,73.81
2019-04-04T13:39:25.327Z,74.32
2019-04-04T13:40:25.329Z,74.22
2019-04-04T13:41:25.291Z,74.29
2019-04-04T13:42:25.288Z,73.91
2019-04-04T13:43:25.276Z,73.40
2019-04-04T13:44:25.283Z,73.27
2019-04-04T13:45:26.070Z,71.76
2019-04-04T13:46:28.055Z,71.42
2019-04-04T13:47:25.246Z,70.94
2019-04-04T13:48:25.269Z,71.04
2019-04-04T13:49:25.207Z,71.25
2019-04-04T13:50:25.265Z,71.86
2019-04-04T13:51:25.642Z,72.10
2019-04-04T13:52:26.431Z,71.69
2019-04-04T13:53:26.117Z,71.79
2019-04-04T13:54:25.151Z,73.02
2019-04-04T13:55:27.299Z,72.41
2019-04-04T13:56:25.166Z,72.51
2019-04-04T13:57:25.144Z,72.13
2019-04-04T13:58:25.112Z,73.16
2019-04-04T13:59:25.109Z,73.33
2019-04-04T14:00:25.100Z,71.59
2019-04-04T14:01:25.517Z,72.24
2019-04-04T14:02:25.097Z,71.93
2019-04-04T14:03:25.100Z,72.85
2019-04-04T14:04:25.301Z,73.06
2019-04-04T14:05:25.087Z,73.27
2019-04-04T14:06:25.028Z,72.34
2019-04-04T14:07:25.017Z,72.44
2019-04-04T14:08:25.038Z,72.96
2019-04-04T14:09:24.993Z,72.44
2019-04-04T14:10:24.990Z,71.83
2019-04-04T14:11:24.969Z,71.83
2019-04-04T14:12:24.980Z,73.13
2019-04-04T14:13:26.321Z,74.15
2019-04-04T14:14:24.979Z,72.20
2019-04-04T14:15:25.721Z,72.51
2019-04-04T14:16:24.929Z,72.41
2019-04-04T14:17:24.910Z,72.51
2019-04-04T14:18:38.074Z,71.28
2019-04-04T14:19:25.913Z,70.66
2019-04-04T14:20:24.879Z,71.28
2019-04-04T14:21:24.865Z,71.79
2019-04-04T14:22:25.683Z,71.17
2019-04-04T14:23:24.855Z,71.79
2019-04-04T14:24:24.876Z,70.15
2019-04-04T14:25:24.858Z,69.53
2019-04-04T14:26:24.827Z,70.87
2019-04-04T14:27:26.993Z,70.73
2019-04-04T14:28:28.130Z,71.45
2019-04-04T14:29:27.792Z,71.35
2019-04-04T14:30:24.796Z,71.25
2019-04-04T14:31:24.802Z,71.76
2019-04-04T14:32:24.786Z,72.24
2019-04-04T14:33:24.770Z,72.55
2019-04-04T14:34:24.742Z,72.03
2019-04-04T14:35:24.817Z,72.41
2019-04-04T14:36:24.726Z,71.42
2019-04-04T14:37:24.705Z,71.48
2019-04-04T14:38:24.691Z,68.41
2019-04-04T14:39:24.678Z,68.92
2019-04-04T14:40:24.697Z,69.13
2019-04-04T14:41:24.663Z,68.82
2019-04-04T14:42:24.638Z,68.92
2019-04-04T14:43:24.627Z,67.49
2019-04-04T14:44:24.655Z,67.93
2019-04-04T14:45:24.617Z,67.08
2019-04-04T14:46:24.609Z,67.18
2019-04-04T14:47:24.611Z,66.77
2019-04-04T14:48:24.596Z,67.49
2019-04-04T14:49:24.597Z,67.79
2019-04-04T14:50:24.563Z,68.10
2019-04-04T14:51:24.576Z,67.97
2019-04-04T14:52:24.541Z,68.41
2019-04-04T14:53:26.236Z,68.99
2019-04-04T14:54:24.511Z,68.59
2019-04-04T14:55:24.541Z,68.65
2019-04-04T14:56:24.549Z,69.10
2019-04-04T14:57:24.502Z,70.70
2019-04-04T14:58:24.510Z,69.89
2019-04-04T14:59:24.467Z,67.73
2019-04-04T15:00:24.446Z,68.96
2019-04-04T15:01:24.460Z,68.96
2019-04-04T15:02:24.434Z,68.24
2019-04-04T15:03:24.428Z,67.49
2019-04-04T15:04:24.424Z,66.88
2019-04-04T15:05:24.398Z,67.02
2019-04-04T15:06:24.429Z,68.04
2019-04-04T15:07:24.371Z,64.97
2019-04-04T15:08:24.380Z,65.75
2019-04-04T15:09:24.365Z,65.27
2019-04-04T15:10:24.392Z,64.25
2019-04-04T15:11:24.788Z,64.53
2019-04-04T15:12:24.380Z,64.83
2019-04-04T15:13:24.353Z,65.04
2019-04-04T15:14:24.294Z,65.75
2019-04-04T15:15:26.243Z,63.91
2019-04-04T15:16:24.271Z,63.20
2019-04-04T15:17:25.929Z,64.32
2019-04-04T15:18:24.295Z,64.42
2019-04-04T15:19:24.251Z,65.45
2019-04-04T15:20:24.250Z,64.53
2019-04-04T15:21:24.260Z,65.55
2019-04-04T15:22:24.210Z,64.62
2019-04-04T15:23:24.230Z,63.09
2019-04-04T15:24:24.267Z,64.97
2019-04-04T15:25:24.196Z,65.37
2019-04-04T15:26:25.182Z,65.17
2019-04-04T15:27:24.153Z,64.97
2019-04-04T15:28:26.086Z,65.27
2019-04-04T15:29:24.245Z,65.68
2019-04-04T15:30:24.125Z,65.04
2019-04-04T15:31:24.128Z,63.94
2019-04-04T15:32:24.132Z,64.45
2019-04-04T15:33:24.669Z,65.17
2019-04-04T15:34:24.970Z,65.07
2019-04-04T15:35:24.151Z,64.56
2019-04-04T15:36:24.098Z,63.20
2019-04-04T15:37:24.043Z,61.99
2019-04-04T15:38:24.122Z,63.94
2019-04-04T15:39:24.147Z,63.94
2019-04-04T15:40:24.026Z,63.32
2019-04-04T15:41:35.864Z,63.02
2019-04-04T15:42:25.030Z,63.94
2019-04-04T15:43:24.212Z,64.56
2019-04-04T15:44:24.136Z,65.27
2019-04-04T15:45:24.009Z,65.27
2019-04-04T15:46:24.151Z,66.67
2019-04-04T15:47:26.731Z,66.57
2019-04-04T15:48:23.928Z,65.86
2019-04-04T15:49:23.919Z,65.75
2019-04-04T15:50:23.905Z,64.94
2019-04-04T15:51:23.957Z,64.73
2019-04-04T15:52:24.091Z,65.14
2019-04-04T15:53:23.882Z,63.40
2019-04-04T15:54:23.870Z,63.09
2019-04-04T15:55:23.887Z,62.99
2019-04-04T15:56:23.891Z,64.12
2019-04-04T15:57:23.898Z,64.73
2019-04-04T15:58:23.928Z,64.53
2019-04-04T15:59:23.853Z,65.04
2019-04-04T16:00:23.815Z,64.62
2019-04-04T16:01:23.792Z,65.24
2019-04-04T16:02:23.839Z,64.83
2019-04-04T16:03:23.855Z,65.75
2019-04-04T16:04:23.774Z,66.47
2019-04-04T16:05:23.831Z,65.55
2019-04-04T16:06:24.662Z,66.67
2019-04-04T16:07:23.803Z,66.16
2019-04-04T16:08:23.715Z,66.67
2019-04-04T16:09:24.696Z,65.34
2019-04-04T16:10:23.725Z,64.73
2019-04-04T16:11:23.698Z,64.94
2019-04-04T16:12:23.696Z,65.86
2019-04-04T16:13:23.656Z,65.75
2019-04-04T16:14:23.652Z,65.34
2019-04-04T16:15:23.692Z,64.83
2019-04-04T16:16:23.672Z,64.62
2019-04-04T16:17:24.393Z,65.45
2019-04-04T16:18:23.708Z,65.65
2019-04-04T16:19:23.600Z,64.42
2019-04-04T16:20:23.621Z,64.97
2019-04-04T16:21:23.570Z,65.04
2019-04-04T16:22:23.571Z,65.24
2019-04-04T16:23:24.215Z,65.75
2019-04-04T16:24:23.548Z,65.55
2019-04-04T16:25:23.565Z,64.94
2019-04-04T16:26:23.520Z,64.97
2019-04-04T16:27:23.516Z,65.27
2019-04-04T16:28:23.560Z,64.97
2019-04-04T16:29:24.558Z,64.97
2019-04-04T16:30:23.498Z,64.97
2019-04-04T16:31:23.565Z,64.25
2019-04-04T16:32:23.887Z,63.94
2019-04-04T16:33:26.337Z,64.35
2019-04-04T16:34:23.478Z,64.07
2019-04-04T16:35:23.429Z,63.94
2019-04-04T16:36:23.419Z,64.79
2019-04-04T16:37:23.412Z,64.48
2019-04-04T16:38:23.430Z,64.10
2019-04-04T16:39:23.769Z,64.10
2019-04-04T16:40:23.377Z,64.20
2019-04-04T16:41:23.358Z,64.51
2019-04-04T16:42:23.371Z,64.61
2019-04-04T16:43:23.348Z,64.61
2019-04-04T16:44:23.557Z,65.33
2019-04-04T16:45:23.323Z,64.72
2019-04-04T16:46:23.369Z,64.72
2019-04-04T16:47:23.318Z,64.61
2019-04-04T16:48:23.321Z,65.54
2019-04-04T16:49:23.374Z,67.08
2019-04-04T16:50:23.279Z,66.97
2019-04-04T16:51:23.309Z,66.16
2019-04-04T16:52:23.754Z,65.51
2019-04-04T16:53:23.263Z,65.71
2019-04-04T16:54:23.252Z,65.95
2019-04-04T16:55:23.253Z,67.14
2019-04-04T16:56:23.204Z,67.05
2019-04-04T16:57:23.619Z,65.71
2019-04-04T16:58:23.197Z,66.74
2019-04-04T16:59:23.170Z,65.51
2019-04-04T17:00:24.226Z,64.89
2019-04-04T17:01:23.202Z,65.51
2019-04-04T17:02:23.162Z,66.33
2019-04-04T17:03:23.123Z,65.20
2019-04-04T17:04:23.113Z,65.20
2019-04-04T17:05:23.097Z,65.00
2019-04-04T17:06:23.163Z,65.30
2019-04-04T17:07:23.088Z,65.00
2019-04-04T17:08:23.084Z,64.65
2019-04-04T17:09:23.305Z,65.61
2019-04-04T17:10:23.066Z,65.48
2019-04-04T17:11:23.069Z,66.63
2019-04-04T17:12:23.052Z,65.78
2019-04-04T17:13:23.008Z,65.30
2019-04-04T17:14:23.000Z,64.79
2019-04-04T17:15:23.017Z,64.69
2019-04-04T17:16:23.010Z,64.48
2019-04-04T17:17:22.982Z,64.69
2019-04-04T17:18:23.014Z,64.41
2019-04-04T17:19:22.948Z,63.69
2019-04-04T17:20:22.941Z,64.20
2019-04-04T17:21:22.999Z,64.72
2019-04-04T17:22:22.988Z,64.82
2019-04-04T17:23:22.936Z,65.03
2019-04-04T17:24:22.909Z,65.64
2019-04-04T17:25:22.888Z,66.87
2019-04-04T17:26:22.905Z,65.03
2019-04-04T17:27:22.884Z,65.23
2019-04-04T17:28:22.901Z,65.16
2019-04-04T17:29:24.891Z,65.44
2019-04-04T17:30:23.048Z,65.33
2019-04-04T17:31:22.831Z,65.64
2019-04-04T17:32:22.825Z,65.03
2019-04-04T17:33:23.003Z,64.61
2019-04-04T17:34:22.930Z,65.12
2019-04-04T17:35:23.344Z,65.84
2019-04-04T17:36:22.792Z,65.23
2019-04-04T17:37:24.002Z,65.44
2019-04-04T17:38:22.749Z,65.54
2019-04-04T17:39:22.798Z,65.12
2019-04-04T17:40:23.138Z,65.23
2019-04-04T17:41:22.732Z,66.87
2019-04-04T17:42:30.424Z,67.79
2019-04-04T17:43:24.273Z,66.25
2019-04-04T17:44:22.863Z,66.77
2019-04-04T17:45:23.104Z,65.88
2019-04-04T17:46:22.868Z,64.13
2019-04-04T17:47:22.841Z,64.44
2019-04-04T17:48:24.378Z,64.34
2019-04-04T17:49:22.756Z,64.44
2019-04-04T17:50:23.091Z,64.57
2019-04-04T17:51:22.711Z,65.39
2019-04-04T17:52:22.828Z,64.98
2019-04-04T17:53:22.630Z,65.09
2019-04-04T17:54:22.600Z,65.91
2019-04-04T17:55:23.021Z,66.52
2019-04-04T17:56:22.575Z,66.11
2019-04-04T17:57:22.574Z,67.35
2019-04-04T17:58:22.997Z,66.83
2019-04-04T17:59:22.521Z,66.42
2019-04-04T18:00:22.571Z,66.63
2019-04-04T18:01:22.501Z,67.14
2019-04-04T18:02:22.500Z,66.63
2019-04-04T18:03:22.506Z,66.73
2019-04-04T18:04:22.534Z,66.86
2019-04-04T18:05:22.510Z,66.93
2019-04-04T18:06:22.446Z,67.35
2019-04-04T18:07:22.447Z,66.73
2019-04-04T18:08:22.450Z,67.44
2019-04-04T18:09:31.573Z,66.22
2019-04-04T18:10:23.458Z,66.73
2019-04-04T18:11:22.412Z,67.48
2019-04-04T18:12:22.398Z,67.14
2019-04-04T18:13:22.391Z,66.66
2019-04-04T18:14:22.380Z,66.73
2019-04-04T18:15:22.375Z,66.93
2019-04-04T18:16:22.383Z,66.76
2019-04-04T18:17:22.338Z,67.55
2019-04-04T18:18:22.322Z,67.27
2019-04-04T18:19:22.326Z,68.10
2019-04-04T18:20:22.300Z,68.88
2019-04-04T18:21:22.374Z,68.81
2019-04-04T18:22:22.283Z,69.32
2019-04-04T18:23:22.272Z,68.51
2019-04-04T18:24:22.267Z,68.91
2019-04-04T18:25:22.269Z,67.89
2019-04-04T18:26:22.275Z,68.81
2019-04-04T18:27:22.249Z,68.81
2019-04-04T18:28:22.267Z,68.91
2019-04-04T18:29:22.205Z,69.23
2019-04-04T18:30:22.198Z,69.12
2019-04-04T18:31:22.213Z,70.76
2019-04-04T18:32:22.173Z,68.91
2019-04-04T18:33:22.189Z,68.13
2019-04-04T18:34:22.171Z,68.13
2019-04-04T18:35:22.190Z,68.40
2019-04-04T18:36:22.169Z,70.18
2019-04-04T18:37:22.147Z,70.46
2019-04-04T18:38:22.120Z,71.41
2019-04-04T18:39:22.093Z,70.39
2019-04-04T18:40:22.108Z,70.49
2019-04-04T18:41:22.207Z,70.08
2019-04-04T18:42:22.114Z,69.98
2019-04-04T18:43:22.142Z,71.21
2019-04-04T18:44:22.062Z,71.93
2019-04-04T18:45:22.067Z,71.41
2019-04-04T18:46:22.041Z,71.21
2019-04-04T18:47:22.016Z,71.51
2019-04-04T18:48:22.022Z,71.21
2019-04-04T18:49:22.119Z,70.90
2019-04-04T18:50:21.988Z,70.70
2019-04-04T18:51:21.965Z,70.59
2019-04-04T18:52:21.968Z,71.11